Time;durP1;ratioP1;P1;durP2;ratioP2;P2;SDS_P1;SDS_P2;PMS_P1;PMS_P2;Temp;Humidity;BMP_temperature;BMP_pressure;BME280_temperature;BME280_humidity;BME280_pressure;Samples;Min_cycle;Max_cycle;Signal;HPM_P1;HPM_P2
2022/03/01 00:05:45;;;;;;;15.23;5.63;;;3.30;99.90;;;;;;4995750;28;20073;-52
2022/03/01 00:08:11;;;;;;;15.90;5.68;;;3.20;99.90;;;;;;4994644;28;20030;-50
2022/03/01 00:10:37;;;;;;;14.02;6.50;;;3.20;99.90;;;;;;4995508;28;20022;-50
2022/03/01 00:13:05;;;;;;;13.88;5.68;;;3.20;99.90;;;;;;4994241;28;20037;-51
2022/03/01 00:15:30;;;;;;;20.48;6.60;;;3.20;99.90;;;;;;4995272;28;20057;-51
2022/03/01 00:17:56;;;;;;;15.15;5.85;;;3.10;99.90;;;;;;4995925;28;20053;-57
2022/03/01 00:20:22;;;;;;;17.40;5.20;;;3.10;99.90;;;;;;4994136;28;20077;-55
2022/03/01 00:22:47;;;;;;;10.95;5.82;;;3.10;99.90;;;;;;4994030;28;20072;-55
2022/03/01 00:25:13;;;;;;;16.08;5.20;;;3.00;99.90;;;;;;4995434;28;20026;-56
2022/03/01 00:27:39;;;;;;;20.92;6.18;;;3.00;99.90;;;;;;4993901;28;20113;-54
2022/03/01 00:30:05;;;;;;;15.90;6.20;;;3.00;99.90;;;;;;4994137;28;20113;-51
2022/03/01 00:32:30;;;;;;;13.70;6.00;;;3.00;99.90;;;;;;4995072;28;20082;-56
2022/03/01 00:34:56;;;;;;;14.38;5.72;;;3.00;99.90;;;;;;4994231;28;20130;-55
2022/03/01 00:37:22;;;;;;;13.45;5.65;;;3.00;99.90;;;;;;4993604;28;20427;-56
2022/03/01 00:39:47;;;;;;;13.15;5.50;;;3.10;99.90;;;;;;4995287;28;20018;-56
2022/03/01 00:42:13;;;;;;;13.05;5.40;;;3.00;99.90;;;;;;4993739;28;20112;-53
2022/03/01 00:44:39;;;;;;;14.38;5.40;;;3.10;99.90;;;;;;4993556;28;20061;-56
2022/03/01 00:47:05;;;;;;;18.05;6.38;;;3.10;99.90;;;;;;4994732;28;20022;-51
2022/03/01 00:49:30;;;;;;;14.75;5.47;;;3.00;99.90;;;;;;4994093;28;20036;-54
2022/03/01 00:51:56;;;;;;;14.80;5.72;;;3.00;99.90;;;;;;4993781;28;20030;-54
2022/03/01 00:54:21;;;;;;;15.27;5.65;;;3.00;99.90;;;;;;4993373;28;20062;-52
2022/03/01 00:56:47;;;;;;;13.45;5.93;;;3.00;99.90;;;;;;4993345;28;20033;-56
2022/03/01 00:59:13;;;;;;;18.38;5.85;;;3.00;99.90;;;;;;4994105;28;20027;-52
2022/03/01 01:01:38;;;;;;;15.63;5.45;;;3.00;99.90;;;;;;4994866;28;20018;-57
2022/03/01 01:04:04;;;;;;;14.20;5.60;;;2.80;99.90;;;;;;4994752;28;20018;-55
2022/03/01 01:06:30;;;;;;;15.68;6.28;;;2.80;99.90;;;;;;4993525;28;20038;-53
2022/03/01 01:08:55;;;;;;;20.90;6.78;;;2.70;99.90;;;;;;4993354;28;20113;-52
2022/03/01 01:11:22;;;;;;;13.88;5.70;;;2.60;99.90;;;;;;4994721;28;20079;-57
2022/03/01 01:13:48;;;;;;;18.38;7.03;;;2.50;99.90;;;;;;4994371;28;20026;-57
2022/03/01 01:16:13;;;;;;;18.98;6.35;;;2.50;99.90;;;;;;4993264;28;20091;-55
2022/03/01 01:18:43;;;;;;;20.73;6.25;;;2.50;99.90;;;;;;4993402;28;20026;-55
2022/03/01 01:21:12;;;;;;;14.45;6.32;;;2.50;99.90;;;;;;4994273;28;20507;-56
2022/03/01 01:23:38;;;;;;;15.48;5.63;;;2.50;99.90;;;;;;4994520;28;20070;-55
2022/03/01 01:26:04;;;;;;;12.77;6.05;;;2.50;99.90;;;;;;4992855;28;20030;-54
2022/03/01 01:28:30;;;;;;;19.30;6.57;;;2.50;99.90;;;;;;4994118;28;20027;-56
2022/03/01 01:30:56;;;;;;;16.23;6.40;;;2.50;99.90;;;;;;4993167;28;20393;-53
2022/03/01 01:33:21;;;;;;;15.02;6.25;;;2.50;99.90;;;;;;4994365;28;20077;-51
2022/03/01 01:35:47;;;;;;;17.73;6.65;;;2.40;99.90;;;;;;4992877;28;20093;-55
2022/03/01 01:38:13;;;;;;;17.35;6.32;;;2.30;99.90;;;;;;4993141;28;20109;-54
2022/03/01 01:40:38;;;;;;;18.75;7.07;;;2.30;99.90;;;;;;4994013;28;20114;-55
2022/03/01 01:43:05;;;;;;;19.10;6.18;;;2.30;99.90;;;;;;4992961;28;20054;-53
2022/03/01 01:45:32;;;;;;;16.67;6.03;;;2.30;99.90;;;;;;4993908;28;20472;-52
2022/03/01 01:47:59;;;;;;;16.52;6.38;;;2.30;99.90;;;;;;4993973;28;20393;-54
2022/03/01 01:50:26;;;;;;;19.58;6.03;;;2.40;99.90;;;;;;4993882;28;20022;-53
2022/03/01 01:52:54;;;;;;;17.45;5.88;;;2.40;99.90;;;;;;4993876;28;20027;-54
2022/03/01 01:55:20;;;;;;;16.30;7.13;;;2.40;99.90;;;;;;4992815;28;20022;-53
2022/03/01 01:57:47;;;;;;;14.32;5.97;;;2.30;99.90;;;;;;4992647;28;20022;-56
2022/03/01 02:00:15;;;;;;;15.82;6.38;;;2.20;99.90;;;;;;4997012;28;20118;-56
2022/03/01 02:02:41;;;;;;;18.67;7.25;;;2.20;99.90;;;;;;4997917;28;20030;-57
2022/03/01 02:05:07;;;;;;;20.13;6.88;;;2.20;99.90;;;;;;4996817;28;20088;-56
2022/03/01 02:07:34;;;;;;;16.90;6.68;;;2.20;99.90;;;;;;4997110;28;20037;-54
2022/03/01 02:09:59;;;;;;;14.20;5.63;;;2.20;99.90;;;;;;4996451;28;20027;-55
2022/03/01 02:12:25;;;;;;;17.10;6.53;;;2.20;99.90;;;;;;4996793;28;20034;-53
2022/03/01 02:14:51;;;;;;;18.73;5.97;;;2.20;99.90;;;;;;4997731;28;20046;-55
2022/03/01 02:17:18;;;;;;;21.60;6.72;;;2.20;99.90;;;;;;4997518;28;20023;-54
2022/03/01 02:19:51;;;;;;;18.30;6.88;;;2.20;99.90;;;;;;4996281;28;20026;-53
2022/03/01 02:22:18;;;;;;;15.63;7.07;;;2.10;99.90;;;;;;4996261;28;20026;-57
2022/03/01 02:24:43;;;;;;;17.08;7.07;;;2.10;99.90;;;;;;4996219;28;20092;-55
2022/03/01 02:27:09;;;;;;;20.75;6.85;;;2.00;99.90;;;;;;4997642;28;20481;-56
2022/03/01 02:29:35;;;;;;;21.10;7.20;;;2.00;99.90;;;;;;4997390;28;20045;-53
2022/03/01 02:32:06;;;;;;;17.88;6.55;;;2.00;99.90;;;;;;4996607;28;20033;-52
2022/03/01 02:34:32;;;;;;;21.92;7.15;;;1.90;99.90;;;;;;4996710;28;20409;-54
2022/03/01 02:36:58;;;;;;;17.70;6.13;;;2.00;99.90;;;;;;4997207;28;20030;-56
2022/03/01 02:39:24;;;;;;;13.80;6.28;;;1.90;99.90;;;;;;4996005;28;20061;-52
2022/03/01 02:41:50;;;;;;;12.40;5.88;;;1.90;99.90;;;;;;4997164;28;20025;-51
2022/03/01 02:44:16;;;;;;;16.20;6.85;;;1.90;99.90;;;;;;4996545;28;20018;-51
2022/03/01 02:46:42;;;;;;;13.88;5.60;;;1.90;99.90;;;;;;4997155;28;20030;-53
2022/03/01 02:49:08;;;;;;;17.52;6.40;;;1.90;99.90;;;;;;4997384;28;20081;-54
2022/03/01 02:51:35;;;;;;;19.08;6.30;;;1.90;99.90;;;;;;4996592;28;20117;-53
2022/03/01 02:54:02;;;;;;;18.58;6.15;;;1.90;99.90;;;;;;4995890;28;20038;-55
2022/03/01 02:56:28;;;;;;;18.95;7.35;;;1.80;99.90;;;;;;4996857;28;20044;-52
2022/03/01 02:58:55;;;;;;;20.33;6.85;;;1.80;99.90;;;;;;4996849;28;20384;-52
2022/03/01 03:01:22;;;;;;;17.05;7.03;;;1.80;99.90;;;;;;4995713;28;20029;-52
2022/03/01 03:03:48;;;;;;;16.83;6.57;;;1.80;99.90;;;;;;4996791;28;20030;-52
2022/03/01 03:09:36;;;;;;;22.23;7.13;;;1.90;99.90;;;;;;4995868;28;20110;-52
2022/03/01 03:12:02;;;;;;;14.52;6.45;;;1.80;99.90;;;;;;4995981;28;20497;-53
2022/03/01 03:14:28;;;;;;;18.60;6.93;;;1.80;99.90;;;;;;4995792;28;20027;-53
2022/03/01 03:16:53;;;;;;;20.35;6.57;;;1.70;99.90;;;;;;4995229;28;20026;-53
2022/03/01 03:19:19;;;;;;;20.95;7.70;;;1.70;99.90;;;;;;4995153;28;20023;-56
2022/03/01 03:21:46;;;;;;;19.05;6.53;;;1.60;99.90;;;;;;4996459;28;20022;-53
2022/03/01 03:24:12;;;;;;;18.42;7.00;;;1.60;99.90;;;;;;4995116;28;20030;-55
2022/03/01 03:26:39;;;;;;;17.98;6.93;;;1.60;99.90;;;;;;4996662;28;20150;-51
2022/03/01 03:29:08;;;;;;;18.65;6.97;;;1.60;99.90;;;;;;4996295;28;20027;-54
2022/03/01 03:31:36;;;;;;;18.45;7.15;;;1.50;99.90;;;;;;4996276;28;20022;-52
2022/03/01 03:34:03;;;;;;;22.10;6.80;;;1.60;99.90;;;;;;4996206;28;20030;-55
2022/03/01 03:36:29;;;;;;;19.25;6.35;;;1.50;99.90;;;;;;4994876;28;20088;-52
2022/03/01 03:38:55;;;;;;;16.83;6.88;;;1.50;99.90;;;;;;4995136;28;20027;-52
2022/03/01 03:41:20;;;;;;;21.00;7.57;;;1.50;99.90;;;;;;4995405;28;20022;-57
2022/03/01 03:43:46;;;;;;;14.82;6.30;;;1.50;99.90;;;;;;4995185;28;20045;-56
2022/03/01 03:46:12;;;;;;;17.50;7.78;;;1.40;99.90;;;;;;4994686;28;20030;-55
2022/03/01 03:48:37;;;;;;;19.88;7.70;;;1.50;99.90;;;;;;4995235;28;20081;-53
2022/03/01 03:51:03;;;;;;;17.73;6.95;;;1.40;99.90;;;;;;4994653;28;20034;-55
2022/03/01 03:53:28;;;;;;;20.95;6.78;;;1.40;99.90;;;;;;4995935;28;20093;-53
2022/03/01 03:55:54;;;;;;;22.98;7.03;;;1.40;99.90;;;;;;4994484;28;20026;-56
2022/03/01 03:58:20;;;;;;;17.35;6.55;;;1.30;99.90;;;;;;4996093;28;20058;-55
2022/03/01 04:00:46;;;;;;;18.15;7.47;;;1.30;99.90;;;;;;4995717;28;20109;-56
2022/03/01 04:03:12;;;;;;;21.13;7.05;;;1.20;99.90;;;;;;4996050;28;20076;-51
2022/03/01 04:05:37;;;;;;;17.30;6.55;;;1.20;99.90;;;;;;4994953;28;20089;-51
2022/03/01 04:08:04;;;;;;;17.75;6.88;;;1.10;99.90;;;;;;4994640;28;20022;-53
2022/03/01 04:10:29;;;;;;;17.95;6.90;;;1.00;99.90;;;;;;4994267;28;20049;-54
2022/03/01 04:12:55;;;;;;;18.52;6.75;;;1.10;99.90;;;;;;4995851;28;20102;-56
2022/03/01 04:15:21;;;;;;;16.45;7.07;;;1.10;99.90;;;;;;4994253;28;20022;-55
2022/03/01 04:17:47;;;;;;;20.08;7.03;;;1.10;99.90;;;;;;4994506;28;20065;-55
2022/03/01 04:20:12;;;;;;;19.27;6.88;;;1.00;99.90;;;;;;4994434;28;20026;-50
2022/03/01 04:22:38;;;;;;;22.90;8.05;;;1.00;99.90;;;;;;4993630;28;20023;-53
2022/03/01 04:25:06;;;;;;;20.50;7.45;;;0.90;99.90;;;;;;4995383;28;20022;-56
2022/03/01 04:27:32;;;;;;;21.63;7.82;;;0.90;99.90;;;;;;4993892;28;20026;-53
2022/03/01 04:29:57;;;;;;;19.17;7.63;;;0.80;99.90;;;;;;4995074;28;20022;-56
2022/03/01 04:32:23;;;;;;;16.45;6.35;;;0.80;99.90;;;;;;4993911;28;20117;-54
2022/03/01 04:34:50;;;;;;;19.25;7.03;;;0.80;99.90;;;;;;4993616;28;20046;-55
2022/03/01 04:37:16;;;;;;;21.17;7.85;;;0.70;99.90;;;;;;4994262;28;20022;-55
2022/03/01 04:39:41;;;;;;;22.38;8.43;;;0.70;99.90;;;;;;4995205;28;20025;-56
2022/03/01 04:42:07;;;;;;;19.30;7.45;;;0.70;99.90;;;;;;4993998;28;20036;-55
2022/03/01 04:44:35;;;;;;;15.80;6.38;;;0.70;99.90;;;;;;4994754;28;20027;-57
2022/03/01 04:47:01;;;;;;;16.27;6.38;;;0.70;99.90;;;;;;4994835;28;20049;-54
2022/03/01 04:49:28;;;;;;;18.13;7.32;;;0.60;99.90;;;;;;4994097;28;20026;-57
2022/03/01 04:51:54;;;;;;;21.98;7.45;;;0.50;99.90;;;;;;4994790;28;20034;-58
2022/03/01 04:54:20;;;;;;;17.88;7.07;;;0.50;99.90;;;;;;4993756;28;20038;-52
2022/03/01 04:56:45;;;;;;;19.08;7.47;;;0.40;99.90;;;;;;4993361;28;20026;-54
2022/03/01 04:59:11;;;;;;;19.10;7.63;;;0.30;99.90;;;;;;4994180;28;20026;-56
2022/03/01 05:01:37;;;;;;;20.13;7.18;;;0.30;99.90;;;;;;4993631;28;20018;-55
2022/03/01 05:04:03;;;;;;;18.10;7.30;;;0.20;99.90;;;;;;4993157;28;20030;-58
2022/03/01 05:06:30;;;;;;;17.90;6.47;;;0.30;99.90;;;;;;4994549;28;20034;-56
2022/03/01 05:08:56;;;;;;;18.02;7.72;;;0.40;99.90;;;;;;4994565;28;20022;-53
2022/03/01 05:11:22;;;;;;;21.17;7.68;;;0.40;99.90;;;;;;4994443;28;20034;-56
2022/03/01 05:13:48;;;;;;;22.60;8.10;;;0.30;99.90;;;;;;4994561;28;20030;-51
2022/03/01 05:16:14;;;;;;;15.77;7.07;;;0.30;99.90;;;;;;4994537;28;20026;-55
2022/03/01 05:18:39;;;;;;;17.63;7.18;;;0.30;99.90;;;;;;4993000;28;20050;-56
2022/03/01 05:21:05;;;;;;;17.35;7.55;;;0.30;99.90;;;;;;4994316;28;20057;-54
2022/03/01 05:23:32;;;;;;;23.75;8.43;;;0.20;99.90;;;;;;4993024;28;20097;-52
2022/03/01 05:25:59;;;;;;;21.63;9.07;;;0.10;99.90;;;;;;4993360;28;20022;-54
2022/03/01 05:28:25;;;;;;;21.80;8.75;;;0.10;99.90;;;;;;4993031;28;20026;-55
2022/03/01 05:30:50;;;;;;;18.30;7.15;;;0.00;99.90;;;;;;4994213;28;20033;-53
2022/03/01 05:33:16;;;;;;;18.65;8.23;;;0.00;99.90;;;;;;4992189;28;20026;-56
2022/03/01 05:35:44;;;;;;;20.23;7.07;;;0.00;99.90;;;;;;4993908;28;20062;-57
2022/03/01 05:38:10;;;;;;;21.40;7.93;;;0.00;99.90;;;;;;4993898;28;20026;-54
2022/03/01 05:40:37;;;;;;;15.98;7.53;;;0.00;99.90;;;;;;4994051;28;20384;-52
2022/03/01 05:43:04;;;;;;;18.88;7.35;;;0.00;99.90;;;;;;4993080;28;20026;-55
2022/03/01 05:45:30;;;;;;;20.98;7.70;;;0.00;99.90;;;;;;4992943;28;20022;-53
2022/03/01 05:47:56;;;;;;;17.08;7.03;;;-0.10;99.90;;;;;;4992681;28;20030;-52
2022/03/01 05:50:23;;;;;;;22.67;7.50;;;-0.10;99.90;;;;;;4993964;28;20041;-56
2022/03/01 05:52:49;;;;;;;20.73;7.53;;;-0.10;99.90;;;;;;4993964;28;20022;-57
2022/03/01 05:55:15;;;;;;;18.58;7.32;;;0.00;99.90;;;;;;4993849;28;20026;-56
2022/03/01 05:57:42;;;;;;;21.80;8.43;;;-0.10;99.90;;;;;;4992804;28;20026;-57
2022/03/01 06:00:10;;;;;;;20.70;7.15;;;-0.20;99.90;;;;;;4993919;28;20113;-53
2022/03/01 06:02:36;;;;;;;22.10;7.68;;;-0.10;99.90;;;;;;4992680;28;20026;-58
2022/03/01 06:05:30;;;;;;;19.17;6.95;;;-0.20;99.90;;;;;;4992923;28;20050;-54
2022/03/01 06:07:56;;;;;;;28.08;8.85;;;-0.20;99.90;;;;;;4993606;28;20085;-57
2022/03/01 06:10:22;;;;;;;21.75;8.05;;;-0.20;99.90;;;;;;4992649;28;20022;-52
2022/03/01 06:12:48;;;;;;;18.05;7.75;;;-0.20;99.90;;;;;;4992643;28;20027;-55
2022/03/01 06:15:14;;;;;;;23.40;7.80;;;0.00;99.90;;;;;;4992754;28;20029;-57
2022/03/01 06:17:40;;;;;;;24.38;7.25;;;0.00;99.90;;;;;;4992326;28;20077;-54
2022/03/01 06:20:08;;;;;;;18.85;6.95;;;0.00;99.90;;;;;;4993232;28;20077;-53
2022/03/01 06:22:34;;;;;;;19.20;6.90;;;-0.10;99.90;;;;;;4993704;28;20026;-51
2022/03/01 06:25:00;;;;;;;18.40;7.22;;;0.00;99.90;;;;;;4992255;28;20026;-57
2022/03/01 06:27:27;;;;;;;19.58;8.25;;;0.00;99.90;;;;;;4992378;28;20030;-54
2022/03/01 06:29:53;;;;;;;22.25;7.40;;;0.10;99.90;;;;;;4992336;28;20060;-54
2022/03/01 06:32:19;;;;;;;14.65;6.88;;;0.00;99.90;;;;;;4993600;28;20057;-54
2022/03/01 06:34:45;;;;;;;17.77;7.18;;;0.10;99.90;;;;;;4992465;28;20053;-56
2022/03/01 06:37:13;;;;;;;20.92;8.43;;;0.20;99.90;;;;;;4992209;28;20026;-57
2022/03/01 06:39:44;;;;;;;18.90;7.15;;;0.50;99.90;;;;;;4993436;28;20022;-55
2022/03/01 06:42:12;;;;;;;17.25;7.43;;;1.10;99.90;;;;;;4993583;28;20023;-56
2022/03/01 06:44:37;;;;;;;16.42;6.95;;;1.80;99.90;;;;;;4995075;28;20029;-54
2022/03/01 06:47:04;;;;;;;21.25;8.38;;;2.50;99.90;;;;;;4997545;28;20034;-54
2022/03/01 06:49:30;;;;;;;18.02;6.95;;;3.10;99.90;;;;;;4996222;28;20026;-56
2022/03/01 06:51:56;;;;;;;21.48;9.73;;;3.90;99.90;;;;;;4996129;28;20032;-56
2022/03/01 06:54:21;;;;;;;21.90;8.60;;;4.60;99.90;;;;;;4995584;28;20084;-56
2022/03/01 06:56:47;;;;;;;17.80;8.35;;;4.90;99.90;;;;;;4997057;28;20078;-54
2022/03/01 06:59:14;;;;;;;19.58;8.48;;;5.20;99.90;;;;;;4995657;28;20026;-55
2022/03/01 07:01:40;;;;;;;21.92;7.82;;;5.60;99.90;;;;;;4996841;28;20023;-56
2022/03/01 07:04:05;;;;;;;14.65;6.80;;;6.20;99.90;;;;;;4996833;28;20103;-56
2022/03/01 07:06:31;;;;;;;18.08;7.50;;;7.00;99.90;;;;;;4996821;28;20029;-56
2022/03/01 07:08:57;;;;;;;22.83;7.90;;;7.20;99.90;;;;;;4997008;28;20022;-55
2022/03/01 07:11:22;;;;;;;18.23;7.55;;;7.50;99.90;;;;;;4995458;28;20049;-54
2022/03/01 07:13:49;;;;;;;18.38;7.82;;;7.90;99.90;;;;;;4996588;28;20085;-57
2022/03/01 07:16:14;;;;;;;15.98;7.07;;;7.90;99.90;;;;;;4995467;28;20049;-51
2022/03/01 07:18:41;;;;;;;17.83;8.30;;;8.70;99.90;;;;;;4996519;28;20030;-52
2022/03/01 07:21:07;;;;;;;15.85;7.88;;;9.70;99.90;;;;;;4995252;28;20117;-57
2022/03/01 07:23:33;;;;;;;14.80;7.88;;;9.40;99.90;;;;;;4995486;28;20111;-58
2022/03/01 07:25:58;;;;;;;18.98;8.63;;;10.00;99.90;;;;;;4996392;28;20054;-57
2022/03/01 07:28:24;;;;;;;15.73;7.75;;;9.20;99.20;;;;;;4995093;28;20109;-56
2022/03/01 07:30:50;;;;;;;21.63;11.00;;;9.00;99.90;;;;;;4995517;28;20030;-53
2022/03/01 07:33:15;;;;;;;23.83;11.48;;;9.10;99.90;;;;;;4995389;28;20093;-59
2022/03/01 07:35:41;;;;;;;22.85;10.45;;;8.80;98.50;;;;;;4996378;28;20126;-56
2022/03/01 07:38:07;;;;;;;28.52;11.57;;;9.20;99.00;;;;;;4996252;28;20034;-58
2022/03/01 07:40:33;;;;;;;18.70;8.68;;;10.10;99.90;;;;;;4996290;28;20089;-57
2022/03/01 07:42:58;;;;;;;20.73;8.77;;;11.00;97.20;;;;;;4996330;28;20027;-55
2022/03/01 07:45:24;;;;;;;24.27;11.57;;;10.80;95.20;;;;;;4996338;28;20042;-56
2022/03/01 07:47:51;;;;;;;25.65;12.68;;;11.20;94.90;;;;;;4996481;28;20058;-58
2022/03/01 07:50:18;;;;;;;30.20;14.40;;;11.40;93.10;;;;;;4994834;28;20117;-56
2022/03/01 07:52:44;;;;;;;22.00;9.93;;;11.30;93.90;;;;;;4995968;28;20034;-59
2022/03/01 07:55:10;;;;;;;16.38;7.50;;;10.90;89.20;;;;;;4995822;28;20041;-52
2022/03/01 07:57:35;;;;;;;19.13;8.00;;;10.40;88.20;;;;;;4995068;28;20082;-57
2022/03/01 08:00:01;;;;;;;14.98;7.00;;;10.30;89.50;;;;;;4994604;28;20085;-59
2022/03/01 08:02:27;;;;;;;15.05;7.72;;;10.70;89.90;;;;;;4994500;28;20105;-58
2022/03/01 08:05:01;;;;;;;17.42;8.38;;;11.00;88.30;;;;;;4994396;28;20050;-56
2022/03/01 08:07:28;;;;;;;15.63;7.93;;;11.00;86.20;;;;;;4995821;28;20033;-58
2022/03/01 08:09:54;;;;;;;13.13;6.60;;;10.60;86.80;;;;;;4995474;28;20037;-56
2022/03/01 08:12:19;;;;;;;18.17;7.93;;;10.50;87.40;;;;;;4994563;28;20030;-55
2022/03/01 08:14:45;;;;;;;15.15;7.25;;;10.20;87.00;;;;;;4995409;28;20026;-56
2022/03/01 08:17:11;;;;;;;13.77;7.05;;;9.80;87.00;;;;;;4994108;28;20027;-56
2022/03/01 08:19:36;;;;;;;15.00;7.72;;;9.80;87.50;;;;;;4995631;28;20100;-58
2022/03/01 08:22:02;;;;;;;18.42;8.10;;;9.80;87.50;;;;;;4995306;28;20023;-54
2022/03/01 08:24:28;;;;;;;14.82;7.38;;;9.60;87.80;;;;;;4995060;28;20023;-56
2022/03/01 08:26:55;;;;;;;12.75;6.68;;;10.40;86.80;;;;;;4994288;28;20037;-58
2022/03/01 08:29:20;;;;;;;15.75;7.18;;;10.80;86.70;;;;;;4994050;28;20374;-58
2022/03/01 08:31:46;;;;;;;14.85;7.53;;;11.60;84.30;;;;;;4995176;28;20029;-55
2022/03/01 08:34:13;;;;;;;16.17;7.68;;;11.40;78.20;;;;;;4993994;28;20037;-58
2022/03/01 08:36:39;;;;;;;17.50;7.65;;;10.80;81.70;;;;;;4993793;28;20041;-59
2022/03/01 08:39:05;;;;;;;14.15;7.07;;;10.60;81.10;;;;;;4993896;28;20019;-58
2022/03/01 08:41:31;;;;;;;13.65;7.63;;;11.30;84.00;;;;;;4994126;28;20022;-58
2022/03/01 08:43:57;;;;;;;14.43;7.65;;;11.40;78.00;;;;;;4995267;28;20030;-53
2022/03/01 08:46:26;;;;;;;14.23;7.55;;;10.80;79.30;;;;;;4993697;28;20118;-58
2022/03/01 08:48:55;;;;;;;15.05;7.53;;;10.60;81.10;;;;;;4993954;28;20027;-53
2022/03/01 08:51:22;;;;;;;14.32;7.45;;;10.50;80.00;;;;;;4993673;28;20031;-58
2022/03/01 08:53:49;;;;;;;15.35;7.18;;;10.50;81.30;;;;;;4994875;28;20027;-54
2022/03/01 08:56:16;;;;;;;14.02;7.55;;;11.40;79.90;;;;;;4993619;28;20030;-56
2022/03/01 08:58:42;;;;;;;15.32;7.13;;;11.80;77.30;;;;;;4993542;28;20045;-59
2022/03/01 09:01:08;;;;;;;15.60;7.80;;;12.60;76.10;;;;;;4994811;28;20477;-59
2022/03/01 09:03:34;;;;;;;15.82;8.25;;;13.50;75.00;;;;;;4994846;28;20106;-56
2022/03/01 09:06:00;;;;;;;16.17;8.02;;;14.20;70.90;;;;;;4993283;28;20042;-55
2022/03/01 09:08:25;;;;;;;15.55;7.60;;;13.10;70.00;;;;;;4994455;28;20081;-55
2022/03/01 09:10:51;;;;;;;14.52;8.05;;;12.60;72.50;;;;;;4994570;28;20058;-54
2022/03/01 09:13:17;;;;;;;17.38;7.72;;;13.10;72.10;;;;;;4994456;28;20022;-53
2022/03/01 09:15:43;;;;;;;12.38;7.20;;;13.40;69.50;;;;;;4993341;28;20030;-56
2022/03/01 09:18:08;;;;;;;14.93;7.43;;;13.60;69.70;;;;;;4993167;28;20105;-55
2022/03/01 09:20:35;;;;;;;13.18;7.43;;;13.10;69.10;;;;;;4994335;28;20109;-52
2022/03/01 09:23:01;;;;;;;16.25;6.93;;;12.60;67.70;;;;;;4994298;28;20028;-51
2022/03/01 09:25:27;;;;;;;14.40;7.25;;;12.10;70.10;;;;;;4994187;28;20027;-56
2022/03/01 09:27:53;;;;;;;14.00;6.82;;;11.70;71.30;;;;;;4994215;28;20105;-53
2022/03/01 09:30:19;;;;;;;16.40;7.60;;;11.40;72.00;;;;;;4993073;28;20022;-53
2022/03/01 09:32:45;;;;;;;16.08;7.57;;;11.50;73.10;;;;;;4994153;28;20022;-55
2022/03/01 09:35:12;;;;;;;13.73;6.88;;;12.00;72.40;;;;;;4992693;28;20045;-56
2022/03/01 09:37:39;;;;;;;12.45;6.63;;;12.00;70.80;;;;;;4992820;28;20619;-53
2022/03/01 09:40:06;;;;;;;12.85;7.00;;;11.80;70.90;;;;;;4994069;28;20022;-53
2022/03/01 09:42:32;;;;;;;16.23;7.07;;;11.80;71.70;;;;;;4994404;28;20019;-56
2022/03/01 09:44:59;;;;;;;15.65;6.25;;;11.20;71.40;;;;;;4993945;28;20022;-51
2022/03/01 09:47:25;;;;;;;13.77;6.90;;;11.20;73.40;;;;;;4992790;28;20105;-56
2022/03/01 09:49:52;;;;;;;12.55;6.47;;;10.70;70.80;;;;;;4993105;28;20480;-54
2022/03/01 09:52:19;;;;;;;13.90;6.40;;;10.70;70.80;;;;;;4993451;28;20032;-52
2022/03/01 09:54:48;;;;;;;13.48;5.93;;;10.40;70.00;;;;;;4992121;28;20190;-55
2022/03/01 09:57:14;;;;;;;14.82;6.80;;;9.60;72.30;;;;;;4992426;28;20561;-51
2022/03/01 09:59:41;;;;;;;13.77;6.18;;;9.60;75.70;;;;;;4992341;28;20118;-56
2022/03/01 10:02:08;;;;;;;10.77;6.13;;;10.30;73.80;;;;;;4992715;28;20023;-48
2022/03/01 10:04:37;;;;;;;13.00;6.28;;;10.70;72.30;;;;;;4993751;28;20036;-52
2022/03/01 10:07:03;;;;;;;14.60;6.53;;;10.80;73.90;;;;;;4993751;28;20113;-53
2022/03/01 10:09:29;;;;;;;13.05;6.13;;;10.10;73.50;;;;;;4993832;28;20041;-55
2022/03/01 10:11:54;;;;;;;15.98;6.70;;;9.70;73.20;;;;;;4993965;28;20026;-48
2022/03/01 10:14:33;;;;;;;17.52;6.25;;;9.10;74.90;;;;;;4993007;28;20258;-50
2022/03/01 10:17:10;;;;;;;12.32;5.70;;;9.30;74.90;;;;;;4992613;28;20026;-54
2022/03/01 10:19:35;;;;;;;15.18;6.57;;;8.80;75.00;;;;;;4995223;28;20030;-57
2022/03/01 10:22:03;;;;;;;12.13;6.95;;;8.80;76.50;;;;;;4996906;28;20022;-56
2022/03/01 10:24:30;;;;;;;12.60;6.03;;;8.30;76.30;;;;;;4996224;28;20023;-54
2022/03/01 10:27:05;;;;;;;14.30;6.35;;;8.30;79.60;;;;;;4997683;28;20109;-55
2022/03/01 10:29:31;;;;;;;12.85;6.40;;;9.20;79.90;;;;;;4997611;28;20031;-53
2022/03/01 10:32:00;;;;;;;13.70;6.10;;;9.90;76.90;;;;;;4996170;28;20076;-55
2022/03/01 10:34:29;;;;;;;9.48;5.60;;;10.10;78.10;;;;;;4997582;28;20030;-54
2022/03/01 10:36:55;;;;;;;12.20;6.22;;;10.20;78.30;;;;;;4997318;28;20465;-57
2022/03/01 10:39:28;;;;;;;13.63;5.97;;;10.70;77.50;;;;;;4997500;28;20092;-54
2022/03/01 10:41:54;;;;;;;13.27;5.30;;;11.00;75.80;;;;;;4995988;28;20110;-57
2022/03/01 10:44:25;;;;;;;11.82;5.40;;;10.80;72.90;;;;;;4997045;28;20054;-56
2022/03/01 10:46:59;;;;;;;12.38;5.18;;;10.10;75.00;;;;;;4996233;28;20108;-57
2022/03/01 10:49:27;;;;;;;12.85;6.25;;;10.30;76.60;;;;;;4995938;28;20031;-53
2022/03/01 10:52:06;;;;;;;10.93;5.80;;;10.00;75.80;;;;;;4997054;28;20073;-56
2022/03/01 10:54:39;;;;;;;13.05;5.70;;;10.00;77.90;;;;;;4996911;28;20481;-56
2022/03/01 10:57:08;;;;;;;14.52;5.93;;;10.30;80.10;;;;;;4995706;28;20055;-55
2022/03/01 10:59:35;;;;;;;16.40;5.85;;;9.70;75.30;;;;;;4995737;28;20027;-53
2022/03/01 11:02:02;;;;;;;13.25;5.50;;;9.30;77.00;;;;;;4995802;28;20026;-50
2022/03/01 11:04:29;;;;;;;10.10;5.43;;;9.40;84.30;;;;;;4995391;28;20100;-58
2022/03/01 11:07:01;;;;;;;11.70;6.00;;;9.70;80.10;;;;;;4996784;28;20035;-55
2022/03/01 11:09:31;;;;;;;19.40;7.13;;;9.50;78.60;;;;;;4996372;28;20031;-54
2022/03/01 11:11:59;;;;;;;15.88;6.75;;;8.90;77.60;;;;;;4996691;28;20018;-52
2022/03/01 11:14:46;;;;;;;15.05;6.38;;;8.60;79.30;;;;;;4995242;28;20022;-50
2022/03/01 11:17:37;;;;;;;11.70;5.80;;;8.20;81.70;;;;;;4995307;28;20033;-52
2022/03/01 11:20:10;;;;;;;12.75;5.40;;;8.70;81.50;;;;;;4996660;28;20485;-54
2022/03/01 11:23:05;;;;;;;10.43;5.03;;;8.40;78.80;;;;;;4995735;28;20093;-56
2022/03/01 11:25:46;;;;;;;13.27;5.60;;;8.70;85.10;;;;;;4995966;28;20038;-50
2022/03/01 11:28:12;;;;;;;18.73;6.43;;;8.40;79.90;;;;;;4995273;28;20029;-52
2022/03/01 11:30:41;;;;;;;12.95;5.78;;;8.40;80.70;;;;;;4995426;28;20033;-52
2022/03/01 11:33:07;;;;;;;13.50;5.55;;;8.60;83.80;;;;;;4996449;28;20089;-48
2022/03/01 11:35:35;;;;;;;11.60;5.63;;;8.30;80.60;;;;;;4995085;28;20034;-55
2022/03/01 11:38:13;;;;;;;11.95;6.35;;;8.70;90.80;;;;;;4996159;28;20027;-55
2022/03/01 11:40:44;;;;;;;13.60;6.45;;;9.40;83.30;;;;;;4994993;28;20022;-53
2022/03/01 11:43:17;;;;;;;11.82;6.25;;;9.10;80.80;;;;;;4996125;28;20022;-56
2022/03/01 11:45:48;;;;;;;14.30;5.88;;;8.90;80.60;;;;;;4996126;28;20026;-55
2022/03/01 11:48:19;;;;;;;13.98;5.53;;;8.40;79.40;;;;;;4994872;28;20043;-52
2022/03/01 11:50:47;;;;;;;13.45;5.68;;;8.00;79.80;;;;;;4994836;28;20058;-48
2022/03/01 11:53:16;;;;;;;13.60;5.50;;;7.80;80.40;;;;;;4994557;28;20031;-52
2022/03/01 11:55:51;;;;;;;11.90;5.68;;;7.70;81.80;;;;;;4995505;28;20034;-50
2022/03/01 11:58:18;;;;;;;11.23;5.47;;;7.80;83.10;;;;;;4994641;28;20019;-52
2022/03/01 12:00:44;;;;;;;15.60;5.45;;;7.80;81.10;;;;;;4994373;28;20033;-51
2022/03/01 12:03:13;;;;;;;11.38;5.38;;;7.70;81.70;;;;;;4994928;28;20045;-52
2022/03/01 12:05:39;;;;;;;13.85;5.55;;;7.60;79.50;;;;;;4994543;28;20018;-54
2022/03/01 12:08:09;;;;;;;12.73;5.72;;;8.20;84.20;;;;;;4994197;28;20030;-48
2022/03/01 12:10:35;;;;;;;15.05;7.22;;;8.40;80.70;;;;;;4994400;28;20030;-52
2022/03/01 12:13:08;;;;;;;14.65;6.28;;;8.10;80.10;;;;;;4994767;28;20098;-52
2022/03/01 12:15:40;;;;;;;13.02;5.03;;;7.60;82.20;;;;;;4993360;28;20026;-50
2022/03/01 12:18:14;;;;;;;14.55;5.65;;;7.60;80.90;;;;;;4993804;28;20100;-51
2022/03/01 12:20:42;;;;;;;10.82;5.72;;;7.40;82.30;;;;;;4994284;28;20081;-52
2022/03/01 12:23:08;;;;;;;10.95;4.65;;;7.40;82.30;;;;;;4993978;28;20030;-49
2022/03/01 12:25:39;;;;;;;13.13;5.72;;;7.50;82.80;;;;;;4994190;28;20022;-52
2022/03/01 12:28:06;;;;;;;9.15;4.90;;;7.70;81.70;;;;;;4993585;28;20036;-56
2022/03/01 12:30:39;;;;;;;12.90;5.78;;;7.70;82.00;;;;;;4993822;28;20026;-50
2022/03/01 12:33:11;;;;;;;17.05;6.25;;;7.90;80.10;;;;;;4993730;28;20116;-51
2022/03/01 12:35:37;;;;;;;13.80;5.93;;;8.00;80.10;;;;;;4993984;28;20038;-51
2022/03/01 12:38:13;;;;;;;10.52;5.40;;;8.10;80.90;;;;;;4995145;28;20029;-48
2022/03/01 12:40:42;;;;;;;11.85;5.32;;;8.00;80.70;;;;;;4995309;28;20057;-53
2022/03/01 12:43:13;;;;;;;12.27;5.25;;;7.80;80.60;;;;;;4994697;28;20033;-51
2022/03/01 12:45:44;;;;;;;12.45;4.82;;;7.60;80.70;;;;;;4994998;28;20026;-54
2022/03/01 12:48:12;;;;;;;12.48;5.43;;;7.50;80.80;;;;;;4995285;28;20022;-51
2022/03/01 12:50:52;;;;;;;9.18;4.75;;;7.30;79.70;;;;;;4994802;28;20029;-49